sensor_id;sensor_type;location;lat;lon;timestamp;P1;durP1;ratioP1;P2;durP2;ratioP2
12921;SDS011;6528;48.086;16.282;2023-02-03T00:00:49;2.60;;;1.33;;
12921;SDS011;6528;48.086;16.282;2023-02-03T00:03:16;1.57;;;1.40;;
12921;SDS011;6528;48.086;16.282;2023-02-03T00:05:43;1.30;;;1.20;;
12921;SDS011;6528;48.086;16.282;2023-02-03T00:08:10;2.33;;;1.93;;
12921;SDS011;6528;48.086;16.282;2023-02-03T00:10:38;2.50;;;1.23;;
12921;SDS011;6528;48.086;16.282;2023-02-03T00:13:05;1.43;;;1.33;;
12921;SDS011;6528;48.086;16.282;2023-02-03T00:15:33;1.50;;;1.20;;
12921;SDS011;6528;48.086;16.282;2023-02-03T00:18:00;1.40;;;1.30;;
12921;SDS011;6528;48.086;16.282;2023-02-03T00:20:26;3.00;;;1.70;;
12921;SDS011;6528;48.086;16.282;2023-02-03T00:22:54;1.57;;;1.47;;
12921;SDS011;6528;48.086;16.282;2023-02-03T00:25:27;4.70;;;1.23;;
12921;SDS011;6528;48.086;16.282;2023-02-03T00:27:54;1.37;;;1.27;;
12921;SDS011;6528;48.086;16.282;2023-02-03T00:30:21;1.60;;;1.50;;
12921;SDS011;6528;48.086;16.282;2023-02-03T00:32:47;1.37;;;1.27;;
12921;SDS011;6528;48.086;16.282;2023-02-03T00:35:14;1.20;;;1.10;;
12921;SDS011;6528;48.086;16.282;2023-02-03T00:37:41;1.27;;;1.17;;
12921;SDS011;6528;48.086;16.282;2023-02-03T00:40:08;1.07;;;1.07;;
12921;SDS011;6528;48.086;16.282;2023-02-03T00:42:35;2.17;;;1.17;;
12921;SDS011;6528;48.086;16.282;2023-02-03T00:45:02;1.73;;;1.13;;
12921;SDS011;6528;48.086;16.282;2023-02-03T00:47:29;1.30;;;1.20;;
12921;SDS011;6528;48.086;16.282;2023-02-03T00:49:55;1.37;;;1.27;;
12921;SDS011;6528;48.086;16.282;2023-02-03T00:52:23;1.53;;;1.10;;
12921;SDS011;6528;48.086;16.282;2023-02-03T00:54:50;3.60;;;1.53;;
12921;SDS011;6528;48.086;16.282;2023-02-03T00:57:16;1.60;;;1.10;;
12921;SDS011;6528;48.086;16.282;2023-02-03T00:59:43;1.23;;;1.10;;
12921;SDS011;6528;48.086;16.282;2023-02-03T01:02:10;1.33;;;1.13;;
12921;SDS011;6528;48.086;16.282;2023-02-03T01:04:36;1.13;;;1.03;;
12921;SDS011;6528;48.086;16.282;2023-02-03T01:07:03;2.37;;;1.40;;
12921;SDS011;6528;48.086;16.282;2023-02-03T01:09:33;0.93;;;0.90;;
12921;SDS011;6528;48.086;16.282;2023-02-03T01:12:02;1.00;;;1.00;;
12921;SDS011;6528;48.086;16.282;2023-02-03T01:14:29;1.10;;;0.87;;
12921;SDS011;6528;48.086;16.282;2023-02-03T01:16:56;1.23;;;1.13;;
12921;SDS011;6528;48.086;16.282;2023-02-03T01:19:23;1.17;;;1.07;;
12921;SDS011;6528;48.086;16.282;2023-02-03T01:21:50;1.53;;;1.17;;
12921;SDS011;6528;48.086;16.282;2023-02-03T01:24:17;1.27;;;0.90;;
12921;SDS011;6528;48.086;16.282;2023-02-03T01:26:43;0.90;;;0.90;;
12921;SDS011;6528;48.086;16.282;2023-02-03T01:29:10;1.20;;;1.00;;
12921;SDS011;6528;48.086;16.282;2023-02-03T01:31:38;2.77;;;1.10;;
12921;SDS011;6528;48.086;16.282;2023-02-03T01:34:07;1.10;;;1.10;;
12921;SDS011;6528;48.086;16.282;2023-02-03T01:36:37;1.00;;;1.00;;
12921;SDS011;6528;48.086;16.282;2023-02-03T01:39:05;2.13;;;1.27;;
12921;SDS011;6528;48.086;16.282;2023-02-03T01:41:33;0.93;;;0.93;;
12921;SDS011;6528;48.086;16.282;2023-02-03T01:44:30;1.27;;;0.90;;
12921;SDS011;6528;48.086;16.282;2023-02-03T01:46:57;0.97;;;0.87;;
12921;SDS011;6528;48.086;16.282;2023-02-03T01:49:26;1.13;;;1.00;;
12921;SDS011;6528;48.086;16.282;2023-02-03T01:52:00;0.97;;;0.97;;
12921;SDS011;6528;48.086;16.282;2023-02-03T01:54:32;0.83;;;0.83;;
12921;SDS011;6528;48.086;16.282;2023-02-03T01:57:05;1.00;;;1.00;;
12921;SDS011;6528;48.086;16.282;2023-02-03T01:59:40;1.17;;;0.83;;
12921;SDS011;6528;48.086;16.282;2023-02-03T02:02:08;1.40;;;1.20;;
12921;SDS011;6528;48.086;16.282;2023-02-03T02:04:48;0.90;;;0.87;;
12921;SDS011;6528;48.086;16.282;2023-02-03T02:07:20;2.10;;;0.90;;
12921;SDS011;6528;48.086;16.282;2023-02-03T02:09:49;0.87;;;0.87;;
12921;SDS011;6528;48.086;16.282;2023-02-03T02:12:16;0.83;;;0.70;;
12921;SDS011;6528;48.086;16.282;2023-02-03T02:14:43;4.40;;;0.87;;
12921;SDS011;6528;48.086;16.282;2023-02-03T02:17:32;1.00;;;0.60;;
12921;SDS011;6528;48.086;16.282;2023-02-03T02:22:54;1.13;;;0.70;;
12921;SDS011;6528;48.086;16.282;2023-02-03T02:37:36;0.60;;;0.60;;
12921;SDS011;6528;48.086;16.282;2023-02-03T02:40:34;0.70;;;0.70;;
12921;SDS011;6528;48.086;16.282;2023-02-03T02:43:40;0.80;;;0.80;;
12921;SDS011;6528;48.086;16.282;2023-02-03T02:46:13;1.60;;;1.10;;
12921;SDS011;6528;48.086;16.282;2023-02-03T02:48:55;0.60;;;0.60;;
12921;SDS011;6528;48.086;16.282;2023-02-03T02:51:32;0.80;;;0.80;;
12921;SDS011;6528;48.086;16.282;2023-02-03T02:54:02;1.30;;;0.60;;
12921;SDS011;6528;48.086;16.282;2023-02-03T02:56:33;1.60;;;0.60;;
12921;SDS011;6528;48.086;16.282;2023-02-03T02:59:02;0.60;;;0.60;;
12921;SDS011;6528;48.086;16.282;2023-02-03T03:01:30;0.60;;;0.60;;
12921;SDS011;6528;48.086;16.282;2023-02-03T03:03:57;0.60;;;0.60;;
12921;SDS011;6528;48.086;16.282;2023-02-03T03:06:47;0.90;;;0.60;;
12921;SDS011;6528;48.086;16.282;2023-02-03T03:09:20;0.40;;;0.40;;
12921;SDS011;6528;48.086;16.282;2023-02-03T03:11:50;0.80;;;0.80;;
12921;SDS011;6528;48.086;16.282;2023-02-03T03:14:23;1.43;;;0.70;;
12921;SDS011;6528;48.086;16.282;2023-02-03T03:16:57;0.40;;;0.40;;
12921;SDS011;6528;48.086;16.282;2023-02-03T03:19:30;0.40;;;0.40;;
12921;SDS011;6528;48.086;16.282;2023-02-03T03:22:02;0.60;;;0.60;;
12921;SDS011;6528;48.086;16.282;2023-02-03T03:24:32;1.03;;;0.70;;
12921;SDS011;6528;48.086;16.282;2023-02-03T03:27:11;0.90;;;0.50;;
12921;SDS011;6528;48.086;16.282;2023-02-03T03:32:09;0.60;;;0.60;;
12921;SDS011;6528;48.086;16.282;2023-02-03T03:34:36;0.50;;;0.50;;
12921;SDS011;6528;48.086;16.282;2023-02-03T03:37:06;0.50;;;0.40;;
12921;SDS011;6528;48.086;16.282;2023-02-03T03:45:18;0.93;;;0.60;;
12921;SDS011;6528;48.086;16.282;2023-02-03T03:50:45;0.80;;;0.73;;
12921;SDS011;6528;48.086;16.282;2023-02-03T03:53:18;0.80;;;0.60;;
12921;SDS011;6528;48.086;16.282;2023-02-03T03:55:47;1.00;;;0.90;;
12921;SDS011;6528;48.086;16.282;2023-02-03T03:58:20;0.40;;;0.40;;
12921;SDS011;6528;48.086;16.282;2023-02-03T04:00:51;0.47;;;0.47;;
12921;SDS011;6528;48.086;16.282;2023-02-03T04:03:22;0.60;;;0.60;;
12921;SDS011;6528;48.086;16.282;2023-02-03T04:05:53;0.50;;;0.50;;
12921;SDS011;6528;48.086;16.282;2023-02-03T04:08:19;0.57;;;0.57;;
12921;SDS011;6528;48.086;16.282;2023-02-03T04:10:46;0.57;;;0.57;;
12921;SDS011;6528;48.086;16.282;2023-02-03T04:13:13;0.60;;;0.60;;
12921;SDS011;6528;48.086;16.282;2023-02-03T04:15:41;0.40;;;0.40;;
12921;SDS011;6528;48.086;16.282;2023-02-03T04:18:08;0.50;;;0.50;;
12921;SDS011;6528;48.086;16.282;2023-02-03T04:20:38;0.70;;;0.70;;
12921;SDS011;6528;48.086;16.282;2023-02-03T04:23:05;0.40;;;0.40;;
12921;SDS011;6528;48.086;16.282;2023-02-03T04:25:31;0.60;;;0.40;;
12921;SDS011;6528;48.086;16.282;2023-02-03T04:27:58;0.40;;;0.40;;
12921;SDS011;6528;48.086;16.282;2023-02-03T04:30:25;1.13;;;0.40;;
12921;SDS011;6528;48.086;16.282;2023-02-03T04:32:53;0.40;;;0.33;;
12921;SDS011;6528;48.086;16.282;2023-02-03T04:35:20;1.93;;;0.60;;
12921;SDS011;6528;48.086;16.282;2023-02-03T04:37:47;0.50;;;0.50;;
12921;SDS011;6528;48.086;16.282;2023-02-03T04:40:13;0.40;;;0.40;;
12921;SDS011;6528;48.086;16.282;2023-02-03T04:42:40;0.43;;;0.43;;
12921;SDS011;6528;48.086;16.282;2023-02-03T04:45:07;0.60;;;0.60;;
12921;SDS011;6528;48.086;16.282;2023-02-03T04:47:35;0.50;;;0.50;;
12921;SDS011;6528;48.086;16.282;2023-02-03T04:50:02;0.37;;;0.37;;
12921;SDS011;6528;48.086;16.282;2023-02-03T04:52:29;0.50;;;0.40;;
12921;SDS011;6528;48.086;16.282;2023-02-03T04:54:56;0.83;;;0.60;;
12921;SDS011;6528;48.086;16.282;2023-02-03T04:57:23;0.33;;;0.33;;
12921;SDS011;6528;48.086;16.282;2023-02-03T04:59:49;1.00;;;0.60;;
12921;SDS011;6528;48.086;16.282;2023-02-03T05:02:16;0.30;;;0.30;;
12921;SDS011;6528;48.086;16.282;2023-02-03T05:04:43;0.50;;;0.50;;
12921;SDS011;6528;48.086;16.282;2023-02-03T05:07:10;0.53;;;0.50;;
12921;SDS011;6528;48.086;16.282;2023-02-03T05:09:36;0.50;;;0.50;;
12921;SDS011;6528;48.086;16.282;2023-02-03T05:12:03;0.47;;;0.47;;
12921;SDS011;6528;48.086;16.282;2023-02-03T05:14:30;0.50;;;0.50;;
12921;SDS011;6528;48.086;16.282;2023-02-03T05:16:57;0.67;;;0.57;;
12921;SDS011;6528;48.086;16.282;2023-02-03T05:19:23;0.60;;;0.60;;
12921;SDS011;6528;48.086;16.282;2023-02-03T05:21:50;0.40;;;0.40;;
12921;SDS011;6528;48.086;16.282;2023-02-03T05:24:17;0.60;;;0.60;;
12921;SDS011;6528;48.086;16.282;2023-02-03T05:26:43;0.50;;;0.50;;
12921;SDS011;6528;48.086;16.282;2023-02-03T05:29:10;0.67;;;0.67;;
12921;SDS011;6528;48.086;16.282;2023-02-03T05:31:37;0.50;;;0.50;;
12921;SDS011;6528;48.086;16.282;2023-02-03T05:34:04;0.50;;;0.50;;
12921;SDS011;6528;48.086;16.282;2023-02-03T05:36:30;0.70;;;0.70;;
12921;SDS011;6528;48.086;16.282;2023-02-03T05:38:57;0.50;;;0.50;;
12921;SDS011;6528;48.086;16.282;2023-02-03T05:41:24;0.53;;;0.53;;
12921;SDS011;6528;48.086;16.282;2023-02-03T05:44:21;0.83;;;0.73;;
12921;SDS011;6528;48.086;16.282;2023-02-03T05:46:50;0.60;;;0.60;;
12921;SDS011;6528;48.086;16.282;2023-02-03T05:49:18;0.50;;;0.50;;
12921;SDS011;6528;48.086;16.282;2023-02-03T05:51:46;0.70;;;0.70;;
12921;SDS011;6528;48.086;16.282;2023-02-03T05:54:13;0.50;;;0.50;;
12921;SDS011;6528;48.086;16.282;2023-02-03T05:56:40;0.50;;;0.50;;
12921;SDS011;6528;48.086;16.282;2023-02-03T05:59:07;0.60;;;0.60;;
12921;SDS011;6528;48.086;16.282;2023-02-03T06:01:34;0.40;;;0.40;;
12921;SDS011;6528;48.086;16.282;2023-02-03T06:04:02;0.47;;;0.47;;
12921;SDS011;6528;48.086;16.282;2023-02-03T06:06:29;0.57;;;0.57;;
12921;SDS011;6528;48.086;16.282;2023-02-03T06:09:02;0.70;;;0.70;;
12921;SDS011;6528;48.086;16.282;2023-02-03T06:11:31;0.70;;;0.60;;
12921;SDS011;6528;48.086;16.282;2023-02-03T06:13:58;0.87;;;0.87;;
12921;SDS011;6528;48.086;16.282;2023-02-03T06:16:26;0.73;;;0.73;;
12921;SDS011;6528;48.086;16.282;2023-02-03T06:18:54;0.63;;;0.63;;
12921;SDS011;6528;48.086;16.282;2023-02-03T06:21:24;0.87;;;0.87;;
12921;SDS011;6528;48.086;16.282;2023-02-03T06:23:51;1.10;;;1.00;;
12921;SDS011;6528;48.086;16.282;2023-02-03T06:26:18;0.90;;;0.80;;
12921;SDS011;6528;48.086;16.282;2023-02-03T06:28:45;0.90;;;0.90;;
12921;SDS011;6528;48.086;16.282;2023-02-03T06:31:12;1.10;;;1.00;;
12921;SDS011;6528;48.086;16.282;2023-02-03T06:33:39;1.10;;;1.10;;
12921;SDS011;6528;48.086;16.282;2023-02-03T06:36:06;1.60;;;1.50;;
12921;SDS011;6528;48.086;16.282;2023-02-03T06:38:33;1.70;;;1.53;;
12921;SDS011;6528;48.086;16.282;2023-02-03T06:41:00;1.47;;;1.37;;
12921;SDS011;6528;48.086;16.282;2023-02-03T06:43:26;1.50;;;1.43;;
12921;SDS011;6528;48.086;16.282;2023-02-03T06:45:53;1.87;;;1.77;;
12921;SDS011;6528;48.086;16.282;2023-02-03T06:48:20;2.10;;;1.80;;
12921;SDS011;6528;48.086;16.282;2023-02-03T06:50:47;1.70;;;1.60;;
12921;SDS011;6528;48.086;16.282;2023-02-03T06:53:14;1.70;;;1.50;;
12921;SDS011;6528;48.086;16.282;2023-02-03T06:55:40;1.93;;;1.83;;
12921;SDS011;6528;48.086;16.282;2023-02-03T06:58:07;1.97;;;1.87;;
12921;SDS011;6528;48.086;16.282;2023-02-03T07:00:34;1.83;;;1.73;;
12921;SDS011;6528;48.086;16.282;2023-02-03T07:03:01;2.30;;;2.17;;
12921;SDS011;6528;48.086;16.282;2023-02-03T07:05:28;1.90;;;1.80;;
12921;SDS011;6528;48.086;16.282;2023-02-03T07:07:55;2.70;;;2.50;;
12921;SDS011;6528;48.086;16.282;2023-02-03T07:10:21;2.33;;;2.23;;
12921;SDS011;6528;48.086;16.282;2023-02-03T07:12:48;1.90;;;1.80;;
12921;SDS011;6528;48.086;16.282;2023-02-03T07:15:17;1.80;;;1.70;;
12921;SDS011;6528;48.086;16.282;2023-02-03T07:17:45;1.80;;;1.70;;
12921;SDS011;6528;48.086;16.282;2023-02-03T07:20:20;2.17;;;2.00;;
12921;SDS011;6528;48.086;16.282;2023-02-03T07:22:51;2.33;;;2.20;;
12921;SDS011;6528;48.086;16.282;2023-02-03T07:25:22;2.10;;;1.90;;
12921;SDS011;6528;48.086;16.282;2023-02-03T07:27:50;2.30;;;2.10;;
12921;SDS011;6528;48.086;16.282;2023-02-03T07:30:17;2.90;;;2.60;;
12921;SDS011;6528;48.086;16.282;2023-02-03T07:32:47;2.60;;;2.40;;
12921;SDS011;6528;48.086;16.282;2023-02-03T07:35:15;2.67;;;2.47;;
12921;SDS011;6528;48.086;16.282;2023-02-03T07:37:42;3.00;;;2.80;;
12921;SDS011;6528;48.086;16.282;2023-02-03T07:40:10;3.00;;;2.70;;
12921;SDS011;6528;48.086;16.282;2023-02-03T07:42:40;3.70;;;2.43;;
12921;SDS011;6528;48.086;16.282;2023-02-03T07:45:08;4.40;;;3.10;;
12921;SDS011;6528;48.086;16.282;2023-02-03T07:47:35;4.10;;;3.57;;
12921;SDS011;6528;48.086;16.282;2023-02-03T07:50:03;3.90;;;3.20;;
12921;SDS011;6528;48.086;16.282;2023-02-03T07:52:29;4.20;;;3.53;;
12921;SDS011;6528;48.086;16.282;2023-02-03T07:54:56;4.83;;;3.60;;
12921;SDS011;6528;48.086;16.282;2023-02-03T07:57:23;4.23;;;3.83;;
12921;SDS011;6528;48.086;16.282;2023-02-03T07:59:50;5.30;;;4.40;;
12921;SDS011;6528;48.086;16.282;2023-02-03T08:02:16;5.53;;;4.03;;
12921;SDS011;6528;48.086;16.282;2023-02-03T08:04:43;4.90;;;4.00;;
12921;SDS011;6528;48.086;16.282;2023-02-03T08:07:10;5.27;;;3.80;;
12921;SDS011;6528;48.086;16.282;2023-02-03T08:09:37;4.50;;;4.10;;
12921;SDS011;6528;48.086;16.282;2023-02-03T08:12:03;7.10;;;3.50;;
12921;SDS011;6528;48.086;16.282;2023-02-03T08:14:30;5.97;;;3.87;;
12921;SDS011;6528;48.086;16.282;2023-02-03T08:16:57;4.97;;;4.20;;
12921;SDS011;6528;48.086;16.282;2023-02-03T08:19:24;4.23;;;3.83;;
12921;SDS011;6528;48.086;16.282;2023-02-03T08:21:50;4.77;;;3.90;;
12921;SDS011;6528;48.086;16.282;2023-02-03T08:24:17;5.40;;;4.37;;
12921;SDS011;6528;48.086;16.282;2023-02-03T08:26:44;7.00;;;5.77;;
12921;SDS011;6528;48.086;16.282;2023-02-03T08:29:10;8.20;;;7.40;;
12921;SDS011;6528;48.086;16.282;2023-02-03T08:31:37;8.90;;;8.10;;
12921;SDS011;6528;48.086;16.282;2023-02-03T08:34:06;11.93;;;8.70;;
12921;SDS011;6528;48.086;16.282;2023-02-03T08:36:33;8.80;;;7.90;;
12921;SDS011;6528;48.086;16.282;2023-02-03T08:39:02;7.87;;;7.07;;
12921;SDS011;6528;48.086;16.282;2023-02-03T08:41:28;10.70;;;7.43;;
12921;SDS011;6528;48.086;16.282;2023-02-03T08:43:55;7.97;;;7.10;;
12921;SDS011;6528;48.086;16.282;2023-02-03T08:46:23;8.80;;;7.87;;
12921;SDS011;6528;48.086;16.282;2023-02-03T08:48:49;8.10;;;6.60;;
12921;SDS011;6528;48.086;16.282;2023-02-03T08:51:18;8.30;;;7.50;;
12921;SDS011;6528;48.086;16.282;2023-02-03T08:53:44;8.13;;;7.30;;
12921;SDS011;6528;48.086;16.282;2023-02-03T08:56:11;9.00;;;7.03;;
12921;SDS011;6528;48.086;16.282;2023-02-03T08:58:38;8.40;;;7.20;;
12921;SDS011;6528;48.086;16.282;2023-02-03T09:01:09;7.17;;;6.20;;
12921;SDS011;6528;48.086;16.282;2023-02-03T09:03:38;8.47;;;7.33;;
12921;SDS011;6528;48.086;16.282;2023-02-03T09:06:05;10.37;;;8.43;;
12921;SDS011;6528;48.086;16.282;2023-02-03T09:08:33;11.60;;;10.17;;
12921;SDS011;6528;48.086;16.282;2023-02-03T09:10:59;11.20;;;10.10;;
12921;SDS011;6528;48.086;16.282;2023-02-03T09:13:26;10.50;;;9.40;;
12921;SDS011;6528;48.086;16.282;2023-02-03T09:15:53;11.73;;;10.23;;
12921;SDS011;6528;48.086;16.282;2023-02-03T09:18:19;9.53;;;8.33;;
12921;SDS011;6528;48.086;16.282;2023-02-03T09:20:46;9.80;;;8.80;;
12921;SDS011;6528;48.086;16.282;2023-02-03T09:23:13;9.13;;;8.23;;
12921;SDS011;6528;48.086;16.282;2023-02-03T09:25:40;10.73;;;8.80;;
12921;SDS011;6528;48.086;16.282;2023-02-03T09:28:11;7.97;;;7.20;;
12921;SDS011;6528;48.086;16.282;2023-02-03T09:30:38;9.60;;;8.50;;
12921;SDS011;6528;48.086;16.282;2023-02-03T09:33:04;11.27;;;10.10;;
12921;SDS011;6528;48.086;16.282;2023-02-03T09:35:31;12.27;;;11.07;;
12921;SDS011;6528;48.086;16.282;2023-02-03T09:37:58;11.30;;;10.10;;
12921;SDS011;6528;48.086;16.282;2023-02-03T09:40:26;13.17;;;10.07;;
12921;SDS011;6528;48.086;16.282;2023-02-03T09:42:59;11.57;;;9.40;;
12921;SDS011;6528;48.086;16.282;2023-02-03T09:49:05;11.23;;;10.13;;
12921;SDS011;6528;48.086;16.282;2023-02-03T09:51:44;10.40;;;9.40;;
12921;SDS011;6528;48.086;16.282;2023-02-03T09:54:20;10.60;;;8.90;;
12921;SDS011;6528;48.086;16.282;2023-02-03T09:56:55;12.60;;;10.37;;
12921;SDS011;6528;48.086;16.282;2023-02-03T09:59:25;11.63;;;10.53;;
12921;SDS011;6528;48.086;16.282;2023-02-03T10:04:31;12.40;;;10.50;;
12921;SDS011;6528;48.086;16.282;2023-02-03T10:07:41;10.13;;;9.17;;
12921;SDS011;6528;48.086;16.282;2023-02-03T10:12:48;13.20;;;11.63;;
12921;SDS011;6528;48.086;16.282;2023-02-03T10:18:13;10.83;;;9.53;;
12921;SDS011;6528;48.086;16.282;2023-02-03T10:20:46;10.43;;;9.37;;
12921;SDS011;6528;48.086;16.282;2023-02-03T10:23:28;10.30;;;9.30;;
12921;SDS011;6528;48.086;16.282;2023-02-03T10:26:00;10.57;;;9.47;;
12921;SDS011;6528;48.086;16.282;2023-02-03T10:28:30;10.07;;;9.03;;
12921;SDS011;6528;48.086;16.282;2023-02-03T10:31:15;9.23;;;8.33;;
12921;SDS011;6528;48.086;16.282;2023-02-03T10:33:45;10.90;;;8.93;;
12921;SDS011;6528;48.086;16.282;2023-02-03T10:38:52;11.60;;;10.40;;
12921;SDS011;6528;48.086;16.282;2023-02-03T10:41:21;11.07;;;9.97;;
12921;SDS011;6528;48.086;16.282;2023-02-03T10:43:49;12.07;;;10.50;;
12921;SDS011;6528;48.086;16.282;2023-02-03T10:48:45;10.73;;;9.73;;
12921;SDS011;6528;48.086;16.282;2023-02-03T10:51:17;11.43;;;8.90;;
12921;SDS011;6528;48.086;16.282;2023-02-03T10:53:49;11.03;;;9.10;;
12921;SDS011;6528;48.086;16.282;2023-02-03T10:56:23;9.57;;;8.63;;
12921;SDS011;6528;48.086;16.282;2023-02-03T10:58:52;11.07;;;9.27;;
12921;SDS011;6528;48.086;16.282;2023-02-03T11:01:43;9.73;;;8.77;;
12921;SDS011;6528;48.086;16.282;2023-02-03T11:07:06;10.10;;;9.20;;
12921;SDS011;6528;48.086;16.282;2023-02-03T11:09:52;9.87;;;8.30;;
12921;SDS011;6528;48.086;16.282;2023-02-03T11:12:18;9.00;;;8.10;;
12921;SDS011;6528;48.086;16.282;2023-02-03T11:14:52;9.10;;;8.30;;
12921;SDS011;6528;48.086;16.282;2023-02-03T11:17:20;10.67;;;8.37;;
12921;SDS011;6528;48.086;16.282;2023-02-03T11:19:49;8.73;;;7.77;;
12921;SDS011;6528;48.086;16.282;2023-02-03T11:22:28;8.40;;;7.70;;
12921;SDS011;6528;48.086;16.282;2023-02-03T11:24:57;7.93;;;7.13;;
12921;SDS011;6528;48.086;16.282;2023-02-03T11:27:27;8.43;;;7.30;;
12921;SDS011;6528;48.086;16.282;2023-02-03T11:30:09;11.50;;;7.87;;
12921;SDS011;6528;48.086;16.282;2023-02-03T11:32:38;8.43;;;7.30;;
12921;SDS011;6528;48.086;16.282;2023-02-03T11:35:17;8.10;;;7.30;;
12921;SDS011;6528;48.086;16.282;2023-02-03T11:37:50;8.43;;;7.57;;
12921;SDS011;6528;48.086;16.282;2023-02-03T11:48:10;8.03;;;7.30;;
12921;SDS011;6528;48.086;16.282;2023-02-03T11:50:48;8.10;;;7.30;;
12921;SDS011;6528;48.086;16.282;2023-02-03T12:08:02;8.27;;;7.47;;
12921;SDS011;6528;48.086;16.282;2023-02-03T12:19:37;9.53;;;8.57;;
12921;SDS011;6528;48.086;16.282;2023-02-03T12:28:10;10.30;;;8.20;;
12921;SDS011;6528;48.086;16.282;2023-02-03T12:31:01;9.00;;;8.10;;
12921;SDS011;6528;48.086;16.282;2023-02-03T12:33:37;9.10;;;8.17;;
12921;SDS011;6528;48.086;16.282;2023-02-03T12:36:20;10.20;;;8.13;;
12921;SDS011;6528;48.086;16.282;2023-02-03T12:38:58;9.30;;;8.40;;
12921;SDS011;6528;48.086;16.282;2023-02-03T12:41:36;8.30;;;7.60;;
12921;SDS011;6528;48.086;16.282;2023-02-03T12:44:20;9.73;;;8.73;;
12921;SDS011;6528;48.086;16.282;2023-02-03T12:46:55;8.07;;;7.37;;
12921;SDS011;6528;48.086;16.282;2023-02-03T12:49:57;9.07;;;8.27;;
12921;SDS011;6528;48.086;16.282;2023-02-03T12:52:33;9.50;;;8.63;;
12921;SDS011;6528;48.086;16.282;2023-02-03T12:55:27;8.23;;;7.57;;
12921;SDS011;6528;48.086;16.282;2023-02-03T12:57:59;8.63;;;7.83;;
12921;SDS011;6528;48.086;16.282;2023-02-03T13:05:52;8.83;;;7.93;;
12921;SDS011;6528;48.086;16.282;2023-02-03T13:08:40;7.20;;;6.60;;
12921;SDS011;6528;48.086;16.282;2023-02-03T13:11:32;7.67;;;6.97;;
12921;SDS011;6528;48.086;16.282;2023-02-03T13:16:43;7.47;;;6.87;;
12921;SDS011;6528;48.086;16.282;2023-02-03T13:19:17;7.63;;;6.97;;
12921;SDS011;6528;48.086;16.282;2023-02-03T13:21:48;7.53;;;6.83;;
12921;SDS011;6528;48.086;16.282;2023-02-03T13:24:15;8.00;;;7.20;;
12921;SDS011;6528;48.086;16.282;2023-02-03T13:32:36;6.83;;;6.23;;
12921;SDS011;6528;48.086;16.282;2023-02-03T13:35:36;6.80;;;6.20;;
12921;SDS011;6528;48.086;16.282;2023-02-03T13:41:18;6.83;;;6.23;;
12921;SDS011;6528;48.086;16.282;2023-02-03T13:44:12;6.80;;;6.20;;
12921;SDS011;6528;48.086;16.282;2023-02-03T13:46:45;6.53;;;5.97;;
12921;SDS011;6528;48.086;16.282;2023-02-03T13:49:24;6.10;;;5.60;;
12921;SDS011;6528;48.086;16.282;2023-02-03T13:52:01;6.37;;;5.80;;
12921;SDS011;6528;48.086;16.282;2023-02-03T13:54:31;6.10;;;5.50;;
12921;SDS011;6528;48.086;16.282;2023-02-03T13:57:01;6.60;;;5.90;;
12921;SDS011;6528;48.086;16.282;2023-02-03T13:59:43;6.00;;;5.30;;
12921;SDS011;6528;48.086;16.282;2023-02-03T14:10:08;5.57;;;5.07;;
12921;SDS011;6528;48.086;16.282;2023-02-03T14:13:17;5.20;;;4.80;;
12921;SDS011;6528;48.086;16.282;2023-02-03T14:15:44;4.87;;;4.53;;
12921;SDS011;6528;48.086;16.282;2023-02-03T14:19:00;5.13;;;4.70;;
12921;SDS011;6528;48.086;16.282;2023-02-03T14:21:28;5.20;;;4.80;;
12921;SDS011;6528;48.086;16.282;2023-02-03T14:24:07;5.37;;;4.87;;
12921;SDS011;6528;48.086;16.282;2023-02-03T14:26:37;4.40;;;4.00;;
12921;SDS011;6528;48.086;16.282;2023-02-03T14:29:07;5.10;;;4.37;;
12921;SDS011;6528;48.086;16.282;2023-02-03T14:31:50;5.37;;;4.90;;
12921;SDS011;6528;48.086;16.282;2023-02-03T14:40:05;4.97;;;4.57;;
12921;SDS011;6528;48.086;16.282;2023-02-03T14:47:51;4.80;;;4.40;;
12921;SDS011;6528;48.086;16.282;2023-02-03T14:59:41;3.80;;;3.50;;
12921;SDS011;6528;48.086;16.282;2023-02-03T15:02:30;4.00;;;3.70;;
12921;SDS011;6528;48.086;16.282;2023-02-03T15:10:21;3.50;;;3.20;;
12921;SDS011;6528;48.086;16.282;2023-02-03T15:12:51;3.23;;;3.00;;
12921;SDS011;6528;48.086;16.282;2023-02-03T15:17:47;2.67;;;2.57;;
12921;SDS011;6528;48.086;16.282;2023-02-03T15:23:17;3.60;;;3.40;;
12921;SDS011;6528;48.086;16.282;2023-02-03T15:25:56;4.33;;;3.13;;
12921;SDS011;6528;48.086;16.282;2023-02-03T15:28:28;3.60;;;3.30;;
12921;SDS011;6528;48.086;16.282;2023-02-03T15:31:06;3.47;;;3.17;;
12921;SDS011;6528;48.086;16.282;2023-02-03T15:33:35;3.07;;;2.87;;
12921;SDS011;6528;48.086;16.282;2023-02-03T15:36:05;3.07;;;2.87;;
12921;SDS011;6528;48.086;16.282;2023-02-03T15:39:07;3.87;;;3.57;;
12921;SDS011;6528;48.086;16.282;2023-02-03T15:41:55;3.00;;;2.80;;
12921;SDS011;6528;48.086;16.282;2023-02-03T15:44:29;2.63;;;2.43;;
12921;SDS011;6528;48.086;16.282;2023-02-03T15:47:01;3.60;;;3.30;;
12921;SDS011;6528;48.086;16.282;2023-02-03T15:49:34;2.70;;;2.50;;
12921;SDS011;6528;48.086;16.282;2023-02-03T15:52:07;2.97;;;2.77;;
12921;SDS011;6528;48.086;16.282;2023-02-03T15:54:58;3.90;;;3.60;;
12921;SDS011;6528;48.086;16.282;2023-02-03T15:57:43;4.40;;;4.10;;
12921;SDS011;6528;48.086;16.282;2023-02-03T16:02:53;3.90;;;3.57;;
12921;SDS011;6528;48.086;16.282;2023-02-03T16:05:24;2.80;;;2.60;;
12921;SDS011;6528;48.086;16.282;2023-02-03T16:07:53;3.00;;;2.80;;
12921;SDS011;6528;48.086;16.282;2023-02-03T16:10:23;1.93;;;1.83;;
12921;SDS011;6528;48.086;16.282;2023-02-03T16:13:16;2.00;;;1.90;;
12921;SDS011;6528;48.086;16.282;2023-02-03T16:18:25;5.17;;;1.87;;
12921;SDS011;6528;48.086;16.282;2023-02-03T16:20:52;1.80;;;1.70;;
12921;SDS011;6528;48.086;16.282;2023-02-03T16:23:20;2.10;;;1.90;;
12921;SDS011;6528;48.086;16.282;2023-02-03T16:28:54;2.20;;;1.90;;
12921;SDS011;6528;48.086;16.282;2023-02-03T16:31:59;1.50;;;1.40;;
12921;SDS011;6528;48.086;16.282;2023-02-03T16:34:45;1.80;;;1.47;;
12921;SDS011;6528;48.086;16.282;2023-02-03T16:37:32;1.40;;;1.40;;
12921;SDS011;6528;48.086;16.282;2023-02-03T16:40:26;1.67;;;1.57;;
12921;SDS011;6528;48.086;16.282;2023-02-03T16:43:13;1.47;;;1.37;;
12921;SDS011;6528;48.086;16.282;2023-02-03T16:45:59;1.30;;;1.20;;
12921;SDS011;6528;48.086;16.282;2023-02-03T16:48:45;1.17;;;1.07;;
12921;SDS011;6528;48.086;16.282;2023-02-03T16:51:37;1.20;;;1.10;;
12921;SDS011;6528;48.086;16.282;2023-02-03T16:54:08;1.30;;;0.80;;
12921;SDS011;6528;48.086;16.282;2023-02-03T16:56:38;0.87;;;0.87;;
12921;SDS011;6528;48.086;16.282;2023-02-03T16:59:05;0.90;;;0.90;;
12921;SDS011;6528;48.086;16.282;2023-02-03T17:01:31;0.80;;;0.80;;
12921;SDS011;6528;48.086;16.282;2023-02-03T17:03:58;1.07;;;0.60;;
12921;SDS011;6528;48.086;16.282;2023-02-03T17:06:25;0.80;;;0.80;;
12921;SDS011;6528;48.086;16.282;2023-02-03T17:08:51;1.20;;;1.20;;
12921;SDS011;6528;48.086;16.282;2023-02-03T17:11:19;2.50;;;1.30;;
12921;SDS011;6528;48.086;16.282;2023-02-03T17:13:49;1.00;;;1.00;;
12921;SDS011;6528;48.086;16.282;2023-02-03T17:16:17;1.33;;;0.90;;
12921;SDS011;6528;48.086;16.282;2023-02-03T17:18:45;0.90;;;0.90;;
12921;SDS011;6528;48.086;16.282;2023-02-03T17:21:16;0.90;;;0.90;;
12921;SDS011;6528;48.086;16.282;2023-02-03T17:23:45;0.90;;;0.70;;
12921;SDS011;6528;48.086;16.282;2023-02-03T17:26:12;1.50;;;1.13;;
12921;SDS011;6528;48.086;16.282;2023-02-03T17:28:39;0.87;;;0.77;;
12921;SDS011;6528;48.086;16.282;2023-02-03T17:31:12;1.00;;;0.97;;
12921;SDS011;6528;48.086;16.282;2023-02-03T17:33:42;1.00;;;0.90;;
12921;SDS011;6528;48.086;16.282;2023-02-03T17:36:10;1.00;;;1.00;;
12921;SDS011;6528;48.086;16.282;2023-02-03T17:38:42;0.90;;;0.80;;